createdAt,value
2023-03-02T00:01:28.070Z,81.90
2023-03-02T00:03:55.771Z,81.90
2023-03-02T00:06:22.712Z,81.90
2023-03-02T00:08:49.548Z,82.00
2023-03-02T00:11:16.349Z,82.70
2023-03-02T00:13:43.241Z,82.40
2023-03-02T00:16:10.258Z,82.30
2023-03-02T00:18:37.086Z,82.20
2023-03-02T00:21:04.136Z,81.90
2023-03-02T00:23:30.933Z,81.70
2023-03-02T00:25:57.762Z,81.60
2023-03-02T00:28:24.614Z,81.50
2023-03-02T00:30:51.472Z,81.50
2023-03-02T00:33:19.851Z,81.50
2023-03-02T00:35:47.201Z,81.50
2023-03-02T00:38:14.012Z,81.60
2023-03-02T00:40:47.756Z,81.60
2023-03-02T00:43:14.764Z,81.60
2023-03-02T00:45:41.626Z,81.70
2023-03-02T00:48:08.531Z,81.90
2023-03-02T00:50:41.279Z,82.00
2023-03-02T00:53:09.251Z,82.10
2023-03-02T00:55:36.617Z,82.60
2023-03-02T00:58:03.946Z,82.10
2023-03-02T01:00:31.851Z,82.10
2023-03-02T01:03:03.241Z,82.10
2023-03-02T01:05:30.140Z,82.10
2023-03-02T01:07:57.563Z,82.10
2023-03-02T01:10:24.410Z,82.20
2023-03-02T01:12:51.208Z,82.10
2023-03-02T01:15:18.225Z,82.00
2023-03-02T01:17:46.763Z,82.10
2023-03-02T01:20:13.831Z,82.10
2023-03-02T01:22:43.747Z,82.10
2023-03-02T01:25:11.254Z,82.10
2023-03-02T01:27:38.054Z,82.10
2023-03-02T01:30:05.618Z,82.10
2023-03-02T01:32:32.569Z,82.20
2023-03-02T01:34:59.419Z,82.20
2023-03-02T01:37:26.249Z,82.10
2023-03-02T01:39:53.121Z,82.10
2023-03-02T01:42:20.020Z,82.00
2023-03-02T01:44:51.862Z,82.10
2023-03-02T01:47:31.126Z,82.00
2023-03-02T01:50:15.016Z,82.10
2023-03-02T01:52:42.098Z,82.00
2023-03-02T01:55:10.423Z,82.00
2023-03-02T01:57:43.750Z,82.00
2023-03-02T02:00:16.507Z,82.00
2023-03-02T02:02:43.334Z,82.60
2023-03-02T02:05:10.938Z,82.00
2023-03-02T02:07:37.962Z,82.00
2023-03-02T02:10:05.629Z,82.10
2023-03-02T02:12:33.038Z,82.10
2023-03-02T02:15:01.389Z,82.00
2023-03-02T02:17:31.286Z,82.10
2023-03-02T02:20:19.631Z,82.30
2023-03-02T02:23:19.697Z,82.40
2023-03-02T02:25:53.174Z,82.50
2023-03-02T02:28:24.533Z,82.40
2023-03-02T02:30:54.300Z,82.30
2023-03-02T02:33:22.361Z,82.20
2023-03-02T02:35:49.245Z,82.30
2023-03-02T02:38:17.316Z,82.40
2023-03-02T02:40:47.036Z,82.50
2023-03-02T02:43:18.071Z,82.50
2023-03-02T02:45:45.266Z,82.50
2023-03-02T02:48:16.122Z,82.50
2023-03-02T02:50:42.998Z,82.60
2023-03-02T02:53:18.470Z,82.50
2023-03-02T02:55:46.165Z,82.60
2023-03-02T02:58:36.125Z,82.60
2023-03-02T03:01:03.218Z,82.90
2023-03-02T03:03:38.279Z,82.90
2023-03-02T03:06:09.739Z,83.40
2023-03-02T03:08:49.129Z,83.10
2023-03-02T03:11:27.057Z,83.30
2023-03-02T03:14:03.278Z,83.40
2023-03-02T03:16:32.008Z,83.40
2023-03-02T03:19:24.470Z,83.50
2023-03-02T03:21:54.070Z,83.70
2023-03-02T03:24:21.892Z,83.70
2023-03-02T03:26:49.231Z,83.90
2023-03-02T03:29:17.661Z,84.00
2023-03-02T03:31:45.162Z,84.10
2023-03-02T03:34:13.093Z,84.20
2023-03-02T03:36:43.268Z,84.40
2023-03-02T03:39:10.513Z,85.00
2023-03-02T03:41:37.510Z,85.10
2023-03-02T03:44:04.520Z,84.70
2023-03-02T03:46:34.485Z,84.80
2023-03-02T03:49:02.043Z,84.80
2023-03-02T03:51:29.953Z,85.50
2023-03-02T03:54:02.811Z,85.00
2023-03-02T03:56:37.419Z,85.20
2023-03-02T03:59:08.626Z,85.30
2023-03-02T04:01:49.770Z,85.30
2023-03-02T04:04:26.457Z,85.30
2023-03-02T04:06:53.481Z,85.30
2023-03-02T04:09:22.042Z,85.30
2023-03-02T04:11:49.805Z,85.40
2023-03-02T04:14:16.983Z,85.50
2023-03-02T04:16:44.254Z,85.60
2023-03-02T04:19:11.367Z,85.60
2023-03-02T04:21:42.324Z,85.60
2023-03-02T04:24:09.776Z,85.70
2023-03-02T04:26:36.941Z,85.80
2023-03-02T04:29:03.991Z,85.80
2023-03-02T04:31:31.343Z,85.90
2023-03-02T04:33:59.678Z,85.90
2023-03-02T04:36:27.050Z,85.90
2023-03-02T04:38:54.461Z,86.00
2023-03-02T04:41:21.655Z,86.20
2023-03-02T04:43:48.445Z,86.20
2023-03-02T04:46:16.420Z,86.30
2023-03-02T04:48:43.255Z,86.40
2023-03-02T04:51:18.820Z,86.40
2023-03-02T04:53:45.621Z,86.50
2023-03-02T04:56:12.455Z,86.50
2023-03-02T04:58:39.242Z,86.50
2023-03-02T05:01:07.293Z,86.60
2023-03-02T05:03:34.239Z,86.70
2023-03-02T05:06:02.233Z,86.70
2023-03-02T05:08:29.501Z,86.70
2023-03-02T05:10:56.367Z,86.80
2023-03-02T05:13:23.117Z,86.90
2023-03-02T05:15:51.694Z,86.90
2023-03-02T05:18:18.615Z,86.90
2023-03-02T05:20:45.466Z,87.00
2023-03-02T05:23:17.125Z,87.00
2023-03-02T05:25:43.912Z,87.10
2023-03-02T05:28:10.766Z,87.20
2023-03-02T05:30:37.798Z,87.30
2023-03-02T05:33:04.997Z,87.30
2023-03-02T05:35:31.832Z,87.40
2023-03-02T05:37:58.747Z,87.40
2023-03-02T05:40:25.640Z,87.40
2023-03-02T05:42:52.505Z,87.50
2023-03-02T05:45:28.001Z,87.50
2023-03-02T05:47:54.889Z,88.00
2023-03-02T05:50:21.754Z,87.50
2023-03-02T05:52:49.020Z,87.60
2023-03-02T05:55:15.974Z,87.60
2023-03-02T05:57:42.862Z,87.70
2023-03-02T06:00:10.765Z,87.80
2023-03-02T06:02:40.941Z,87.90
2023-03-02T06:05:16.127Z,87.90
2023-03-02T06:07:43.036Z,88.70
2023-03-02T06:10:10.870Z,88.20
2023-03-02T06:12:37.752Z,88.30
2023-03-02T06:15:06.693Z,88.40
2023-03-02T06:17:33.563Z,88.30
2023-03-02T06:20:00.437Z,88.30
2023-03-02T06:22:27.311Z,88.40
2023-03-02T06:24:56.710Z,88.40
2023-03-02T06:27:23.493Z,88.40
2023-03-02T06:29:50.325Z,88.50
2023-03-02T06:32:17.284Z,88.50
2023-03-02T06:34:44.339Z,88.60
2023-03-02T06:37:11.506Z,88.60
2023-03-02T06:39:38.410Z,88.60
2023-03-02T06:42:05.208Z,88.60
2023-03-02T06:44:31.995Z,88.70
2023-03-02T06:46:58.791Z,88.70
2023-03-02T06:49:25.656Z,88.70
2023-03-02T06:51:52.467Z,88.60
2023-03-02T06:54:19.325Z,88.50
2023-03-02T06:56:46.113Z,88.50
2023-03-02T06:59:12.909Z,88.50
2023-03-02T07:01:40.108Z,88.40
2023-03-02T07:04:07.042Z,88.40
2023-03-02T07:06:33.877Z,88.30
2023-03-02T07:09:01.721Z,88.40
2023-03-02T07:11:28.541Z,88.40
2023-03-02T07:13:55.338Z,88.40
2023-03-02T07:16:22.392Z,88.30
2023-03-02T07:18:49.197Z,88.20
2023-03-02T07:21:15.963Z,88.10
2023-03-02T07:23:42.782Z,88.10
2023-03-02T07:26:09.610Z,88.20
2023-03-02T07:28:41.712Z,88.20
2023-03-02T07:31:08.880Z,88.30
2023-03-02T07:33:36.627Z,88.30
2023-03-02T07:36:03.804Z,88.30
2023-03-02T07:38:30.623Z,88.30
2023-03-02T07:40:57.460Z,88.40
2023-03-02T07:43:26.023Z,88.60
2023-03-02T07:45:53.009Z,88.50
2023-03-02T07:48:20.145Z,88.50
2023-03-02T07:50:47.035Z,88.40
2023-03-02T07:53:13.811Z,88.30
2023-03-02T07:55:41.569Z,88.20
2023-03-02T07:58:08.354Z,88.10
2023-03-02T08:00:36.718Z,87.90
2023-03-02T08:03:03.641Z,87.60
2023-03-02T08:05:30.873Z,87.40
2023-03-02T08:07:57.655Z,87.20
2023-03-02T08:10:24.476Z,87.10
2023-03-02T08:12:51.985Z,86.90
2023-03-02T08:15:18.891Z,86.90
2023-03-02T08:17:45.775Z,86.50
2023-03-02T08:20:12.790Z,86.30
2023-03-02T08:22:39.656Z,86.10
2023-03-02T08:25:07.391Z,85.90
2023-03-02T08:27:34.275Z,85.70
2023-03-02T08:30:01.062Z,85.50
2023-03-02T08:32:27.980Z,85.30
2023-03-02T08:34:54.792Z,85.10
2023-03-02T08:37:21.590Z,85.00
2023-03-02T08:39:48.576Z,84.80
2023-03-02T08:42:15.495Z,84.50
2023-03-02T08:44:42.358Z,84.20
2023-03-02T08:47:09.208Z,84.10
2023-03-02T08:49:37.940Z,83.80
2023-03-02T08:52:04.995Z,83.60
2023-03-02T08:54:34.280Z,83.40
2023-03-02T08:57:01.812Z,83.10
2023-03-02T08:59:28.713Z,82.80
2023-03-02T09:01:55.531Z,82.60
2023-03-02T09:04:22.466Z,82.40
2023-03-02T09:06:49.412Z,82.20
2023-03-02T09:09:16.245Z,82.10
2023-03-02T09:11:43.560Z,81.90
2023-03-02T09:14:10.446Z,81.60
2023-03-02T09:16:37.349Z,81.30
2023-03-02T09:19:04.253Z,81.00
2023-03-02T09:21:31.170Z,80.80
2023-03-02T09:23:58.450Z,80.90
2023-03-02T09:26:26.448Z,80.70
2023-03-02T09:28:53.330Z,80.50
2023-03-02T09:31:20.297Z,80.00
2023-03-02T09:33:47.204Z,79.40
2023-03-02T09:36:19.368Z,78.80
2023-03-02T09:38:46.340Z,78.30
2023-03-02T09:41:19.504Z,77.70
2023-03-02T09:44:04.420Z,77.10
2023-03-02T09:47:03.089Z,76.80
2023-03-02T09:50:12.144Z,76.40
2023-03-02T09:52:41.110Z,76.10
2023-03-02T09:55:22.724Z,76.00
2023-03-02T09:57:49.699Z,75.60
2023-03-02T10:00:20.082Z,75.30
2023-03-02T10:02:48.542Z,74.80
2023-03-02T10:05:21.437Z,74.60
2023-03-02T10:07:49.100Z,74.70
2023-03-02T10:10:25.274Z,75.00
2023-03-02T10:12:54.903Z,74.90
2023-03-02T10:15:36.789Z,74.80
2023-03-02T10:18:11.236Z,74.40
2023-03-02T10:20:43.816Z,74.10
2023-03-02T10:23:24.934Z,73.80
2023-03-02T10:26:05.192Z,73.00
2023-03-02T10:28:38.525Z,72.70
2023-03-02T10:31:18.859Z,72.40
2023-03-02T10:33:45.852Z,72.20
2023-03-02T10:36:26.472Z,72.70
2023-03-02T10:38:54.290Z,71.90
2023-03-02T10:41:43.411Z,72.00
2023-03-02T10:44:19.329Z,71.50
2023-03-02T10:46:46.461Z,71.20
2023-03-02T10:49:33.526Z,70.90
2023-03-02T10:52:27.591Z,70.30
2023-03-02T10:55:16.498Z,69.70
2023-03-02T10:57:44.134Z,69.10
2023-03-02T11:00:18.289Z,68.40
2023-03-02T11:02:58.864Z,67.70
2023-03-02T11:05:38.990Z,67.30
2023-03-02T11:08:08.982Z,66.70
2023-03-02T11:10:52.797Z,66.60
2023-03-02T11:13:24.188Z,66.00
2023-03-02T11:15:52.002Z,65.80
2023-03-02T11:18:42.241Z,66.00
2023-03-02T11:21:15.327Z,65.20
2023-03-02T11:24:03.604Z,65.50
2023-03-02T11:26:47.664Z,65.90
2023-03-02T11:29:46.005Z,65.80
2023-03-02T11:32:17.504Z,65.00
2023-03-02T11:34:51.460Z,65.00
2023-03-02T11:37:25.005Z,64.00
2023-03-02T11:40:22.522Z,63.70
2023-03-02T11:42:49.463Z,63.50
2023-03-02T11:45:27.304Z,64.50
2023-03-02T11:48:19.606Z,64.00
2023-03-02T11:51:03.670Z,63.90
2023-03-02T11:53:33.693Z,64.10
2023-03-02T11:56:00.561Z,64.50
2023-03-02T11:58:28.326Z,64.20
2023-03-02T12:00:55.148Z,63.70
2023-03-02T12:03:24.573Z,63.30
2023-03-02T12:05:51.386Z,62.40
2023-03-02T12:08:21.376Z,61.90
2023-03-02T12:11:08.813Z,61.50
2023-03-02T12:13:39.456Z,61.10
2023-03-02T12:16:42.788Z,61.10
2023-03-02T12:19:16.463Z,60.80
2023-03-02T12:21:55.672Z,60.80
2023-03-02T12:24:32.623Z,60.80
2023-03-02T12:27:12.990Z,60.60
2023-03-02T12:29:41.740Z,60.40
2023-03-02T12:32:26.893Z,60.30
2023-03-02T12:35:01.620Z,59.80
2023-03-02T12:37:46.690Z,60.00
2023-03-02T12:40:28.562Z,59.80
2023-03-02T12:43:00.219Z,59.30
2023-03-02T12:45:39.030Z,58.50
2023-03-02T12:48:19.691Z,57.60
2023-03-02T12:50:46.643Z,57.10
2023-03-02T12:53:19.945Z,56.50
2023-03-02T12:55:47.120Z,55.20
2023-03-02T12:58:25.406Z,54.50
2023-03-02T13:00:59.739Z,53.40
2023-03-02T13:03:27.443Z,53.50
2023-03-02T13:06:02.508Z,53.30
2023-03-02T13:08:29.485Z,52.90
2023-03-02T13:10:58.071Z,52.50
2023-03-02T13:13:39.403Z,51.70
2023-03-02T13:16:23.397Z,50.70
2023-03-02T13:18:55.401Z,50.70
2023-03-02T13:21:24.767Z,49.50
2023-03-02T13:23:51.948Z,48.60
2023-03-02T13:26:33.355Z,47.90
2023-03-02T13:29:02.412Z,47.30
2023-03-02T13:31:29.773Z,46.80
2023-03-02T13:33:57.142Z,46.30
2023-03-02T13:36:29.364Z,45.80
2023-03-02T13:38:57.625Z,45.30
2023-03-02T13:41:25.589Z,45.10
2023-03-02T13:43:52.564Z,44.70
2023-03-02T13:46:20.048Z,44.20
2023-03-02T13:49:09.047Z,43.60
2023-03-02T13:51:46.647Z,42.80
2023-03-02T13:54:21.191Z,42.60
2023-03-02T13:56:48.115Z,42.00
2023-03-02T13:59:16.735Z,41.80
2023-03-02T14:01:44.251Z,41.20
2023-03-02T14:04:16.549Z,41.40
2023-03-02T14:06:44.163Z,40.20
2023-03-02T14:09:10.992Z,40.10
2023-03-02T14:11:40.124Z,39.90
2023-03-02T14:14:07.032Z,39.30
2023-03-02T14:16:37.130Z,39.00
2023-03-02T14:19:04.141Z,38.80
2023-03-02T14:21:31.308Z,38.30
2023-03-02T14:23:59.040Z,37.90
2023-03-02T14:26:35.583Z,37.70
2023-03-02T14:29:25.437Z,37.10
2023-03-02T14:31:53.786Z,37.00
2023-03-02T14:34:20.660Z,37.00
2023-03-02T14:36:49.439Z,36.90
2023-03-02T14:39:38.239Z,36.60
2023-03-02T14:42:05.845Z,36.30
2023-03-02T14:44:32.844Z,36.30
2023-03-02T14:46:59.630Z,36.30
2023-03-02T14:49:26.534Z,36.00
2023-03-02T14:51:58.764Z,36.30
2023-03-02T14:54:25.641Z,35.30
2023-03-02T14:56:52.678Z,35.30
2023-03-02T14:59:19.574Z,34.90
2023-03-02T15:01:46.507Z,34.60
2023-03-02T15:04:13.408Z,34.30
2023-03-02T15:06:41.704Z,34.00
2023-03-02T15:09:08.549Z,33.90
2023-03-02T15:11:36.008Z,33.60
2023-03-02T15:14:02.969Z,33.40
2023-03-02T15:16:29.863Z,33.50
2023-03-02T15:18:58.709Z,33.40
2023-03-02T15:21:25.772Z,33.30
2023-03-02T15:23:52.757Z,33.20
2023-03-02T15:26:19.630Z,32.90
2023-03-02T15:28:50.037Z,32.60
2023-03-02T15:31:17.343Z,32.40
2023-03-02T15:33:45.558Z,32.90
2023-03-02T15:36:13.691Z,32.20
2023-03-02T15:38:40.651Z,31.90
2023-03-02T15:41:08.457Z,32.00
2023-03-02T15:43:35.262Z,31.80
2023-03-02T15:46:02.370Z,31.80
2023-03-02T15:48:29.778Z,31.70
2023-03-02T15:51:00.297Z,31.70
2023-03-02T15:53:27.620Z,31.40
2023-03-02T15:55:54.487Z,31.50
2023-03-02T15:58:24.190Z,31.40
2023-03-02T16:00:53.495Z,31.30
2023-03-02T16:03:20.634Z,31.30
2023-03-02T16:05:47.506Z,31.30
2023-03-02T16:08:14.433Z,31.30
2023-03-02T16:10:42.968Z,31.20
2023-03-02T16:13:10.621Z,31.20
2023-03-02T16:15:40.075Z,31.30
2023-03-02T16:18:10.293Z,31.50
2023-03-02T16:20:37.902Z,31.70
2023-03-02T16:23:06.309Z,32.00
2023-03-02T16:25:34.571Z,32.40
2023-03-02T16:28:02.705Z,33.10
2023-03-02T16:30:30.433Z,33.70
2023-03-02T16:32:59.457Z,34.10
2023-03-02T16:35:26.603Z,34.60
2023-03-02T16:37:53.465Z,35.20
2023-03-02T16:40:20.436Z,36.50
2023-03-02T16:42:47.303Z,36.30
2023-03-02T16:45:14.298Z,36.70
2023-03-02T16:47:41.157Z,37.10
2023-03-02T16:50:08.699Z,38.10
2023-03-02T16:52:35.559Z,37.70
2023-03-02T16:55:02.890Z,37.70
2023-03-02T16:57:29.772Z,37.90
2023-03-02T16:59:56.653Z,38.70
2023-03-02T17:02:23.496Z,39.70
2023-03-02T17:04:50.365Z,40.80
2023-03-02T17:07:17.311Z,41.80
2023-03-02T17:09:44.249Z,42.60
2023-03-02T17:12:11.059Z,43.40
2023-03-02T17:14:37.873Z,44.20
2023-03-02T17:17:04.721Z,44.80
2023-03-02T17:19:31.584Z,45.10
2023-03-02T17:21:59.385Z,45.50
2023-03-02T17:24:27.169Z,45.90
2023-03-02T17:26:54.214Z,46.30
2023-03-02T17:29:21.333Z,46.70
2023-03-02T17:31:48.213Z,47.20
2023-03-02T17:34:15.194Z,47.60
2023-03-02T17:36:42.156Z,48.00
2023-03-02T17:39:09.261Z,48.50
2023-03-02T17:41:39.578Z,48.90
2023-03-02T17:44:06.445Z,49.30
2023-03-02T17:46:33.291Z,49.80
2023-03-02T17:49:00.695Z,50.20
2023-03-02T17:51:28.302Z,51.00
2023-03-02T17:53:55.421Z,52.00
2023-03-02T17:56:27.412Z,53.00
2023-03-02T17:58:55.679Z,53.40
2023-03-02T18:01:22.658Z,53.60
2023-03-02T18:03:49.558Z,53.70
2023-03-02T18:06:23.498Z,53.90
2023-03-02T18:08:51.034Z,54.60
2023-03-02T18:11:19.036Z,54.90
2023-03-02T18:13:45.975Z,55.10
2023-03-02T18:16:12.875Z,55.90
2023-03-02T18:18:39.724Z,56.10
2023-03-02T18:21:06.606Z,56.10
2023-03-02T18:23:33.543Z,56.40
2023-03-02T18:26:00.469Z,56.60
2023-03-02T18:28:27.287Z,56.80
2023-03-02T18:30:54.370Z,57.20
2023-03-02T18:33:21.269Z,57.50
2023-03-02T18:35:48.103Z,57.50
2023-03-02T18:38:14.882Z,57.70
2023-03-02T18:40:41.787Z,58.10
2023-03-02T18:43:08.580Z,58.20
2023-03-02T18:45:35.502Z,58.10
2023-03-02T18:48:02.592Z,58.40
2023-03-02T18:50:29.468Z,58.60
2023-03-02T18:52:56.449Z,58.70
2023-03-02T18:55:23.925Z,58.90
2023-03-02T18:57:53.760Z,59.10
2023-03-02T19:00:26.036Z,59.50
2023-03-02T19:02:54.266Z,59.80
2023-03-02T19:05:21.111Z,60.70
2023-03-02T19:07:48.059Z,60.10
2023-03-02T19:10:15.009Z,60.50
2023-03-02T19:12:41.969Z,60.80
2023-03-02T19:15:10.931Z,60.80
2023-03-02T19:17:39.754Z,61.10
2023-03-02T19:20:07.500Z,61.10
2023-03-02T19:22:34.618Z,61.40
2023-03-02T19:25:01.489Z,62.00
2023-03-02T19:27:28.444Z,61.90
2023-03-02T19:29:55.266Z,62.20
2023-03-02T19:32:22.205Z,62.60
2023-03-02T19:34:49.088Z,62.60
2023-03-02T19:37:15.911Z,62.40
2023-03-02T19:39:43.022Z,62.40
2023-03-02T19:42:09.916Z,62.40
2023-03-02T19:44:36.888Z,62.60
2023-03-02T19:47:04.556Z,62.80
2023-03-02T19:49:31.430Z,63.00
2023-03-02T19:52:00.629Z,63.20
2023-03-02T19:54:27.530Z,63.70
2023-03-02T19:56:54.527Z,64.00
2023-03-02T19:59:22.185Z,64.10
2023-03-02T20:01:51.179Z,64.60
2023-03-02T20:04:20.626Z,64.70
2023-03-02T20:06:47.483Z,64.70
2023-03-02T20:09:19.545Z,64.30
2023-03-02T20:11:47.417Z,64.20
2023-03-02T20:14:27.630Z,64.30
2023-03-02T20:17:00.799Z,64.70
2023-03-02T20:19:27.668Z,65.00
2023-03-02T20:21:54.626Z,65.50
2023-03-02T20:24:21.488Z,65.80
2023-03-02T20:26:48.342Z,66.10
2023-03-02T20:29:15.293Z,66.40
2023-03-02T20:31:42.298Z,66.50
2023-03-02T20:34:11.041Z,66.40
2023-03-02T20:36:38.213Z,66.30
2023-03-02T20:39:07.484Z,66.20
2023-03-02T20:41:34.633Z,66.10
2023-03-02T20:44:01.433Z,65.90
2023-03-02T20:46:30.710Z,66.00
2023-03-02T20:48:57.636Z,66.20
2023-03-02T20:51:24.978Z,66.00
2023-03-02T20:53:53.133Z,65.80
2023-03-02T20:56:20.249Z,65.60
2023-03-02T20:58:47.349Z,65.50
2023-03-02T21:01:15.051Z,65.70
2023-03-02T21:03:42.171Z,66.00
2023-03-02T21:06:09.582Z,66.40
2023-03-02T21:08:39.032Z,66.70
2023-03-02T21:11:10.646Z,66.90
2023-03-02T21:13:39.188Z,67.10
2023-03-02T21:16:07.166Z,67.10
2023-03-02T21:18:34.861Z,67.20
2023-03-02T21:21:02.477Z,67.80
2023-03-02T21:23:29.546Z,67.10
2023-03-02T21:25:56.445Z,67.10
2023-03-02T21:28:23.342Z,67.00
2023-03-02T21:30:50.291Z,67.10
2023-03-02T21:33:17.155Z,67.10
2023-03-02T21:35:46.314Z,67.20
2023-03-02T21:38:13.241Z,67.30
2023-03-02T21:40:43.089Z,67.30
2023-03-02T21:43:09.930Z,67.40
2023-03-02T21:45:37.006Z,67.30
2023-03-02T21:48:04.161Z,68.00
2023-03-02T21:50:32.966Z,67.40
2023-03-02T21:52:59.949Z,67.40
2023-03-02T21:55:27.555Z,67.50
2023-03-02T21:57:55.833Z,67.50
2023-03-02T22:00:26.921Z,67.50
2023-03-02T22:02:53.758Z,67.70
2023-03-02T22:05:20.729Z,67.70
2023-03-02T22:07:47.808Z,67.80
2023-03-02T22:10:26.680Z,67.90
2023-03-02T22:13:21.221Z,68.00
2023-03-02T22:15:48.225Z,68.10
2023-03-02T22:18:16.485Z,68.00
2023-03-02T22:20:44.755Z,68.10
2023-03-02T22:23:12.838Z,68.10
2023-03-02T22:25:40.537Z,68.20
2023-03-02T22:28:15.354Z,68.20
2023-03-02T22:30:42.400Z,68.40
2023-03-02T22:33:18.110Z,68.30
2023-03-02T22:35:45.012Z,68.50
2023-03-02T22:38:30.392Z,68.40
2023-03-02T22:40:57.705Z,68.70
2023-03-02T22:43:33.027Z,68.50
2023-03-02T22:46:10.112Z,68.60
2023-03-02T22:48:37.610Z,68.70
2023-03-02T22:51:23.172Z,68.70
2023-03-02T22:53:57.855Z,68.90
2023-03-02T22:56:38.300Z,68.90
2023-03-02T22:59:18.079Z,69.00
2023-03-02T23:01:45.222Z,68.80
2023-03-02T23:04:19.667Z,68.50
2023-03-02T23:06:53.485Z,68.60
2023-03-02T23:09:22.908Z,68.60
2023-03-02T23:11:50.000Z,68.70
2023-03-02T23:14:34.993Z,68.80
2023-03-02T23:17:08.425Z,69.10
2023-03-02T23:19:35.263Z,69.10
2023-03-02T23:22:02.373Z,69.20
2023-03-02T23:24:29.148Z,69.30
2023-03-02T23:26:56.038Z,69.30
2023-03-02T23:29:22.950Z,69.40
2023-03-02T23:31:50.007Z,69.50
2023-03-02T23:34:16.853Z,69.50
2023-03-02T23:36:43.764Z,69.60
2023-03-02T23:39:10.873Z,69.60
2023-03-02T23:41:38.605Z,69.60
2023-03-02T23:44:06.120Z,69.60
2023-03-02T23:46:33.118Z,69.60
2023-03-02T23:49:00.131Z,69.70
2023-03-02T23:51:26.925Z,69.80
2023-03-02T23:53:54.177Z,69.80
2023-03-02T23:56:21.268Z,69.90
2023-03-02T23:58:48.126Z,69.80
